Time;durP1;ratioP1;P1;durP2;ratioP2;P2;SDS_P1;SDS_P2;PMS_P1;PMS_P2;Temp;Humidity;BMP_temperature;BMP_pressure;BME280_temperature;BME280_humidity;BME280_pressure;Samples;Min_cycle;Max_cycle;Signal;HPM_P1;HPM_P2
2023/04/07 00:00:49;;;;;;;21.42;10.05;;;;;;;8.05;100.00;101361.47;5050034;28;20076;-74
2023/04/07 00:03:15;;;;;;;19.88;9.90;;;;;;;8.05;100.00;101362.28;5050264;28;20025;-74
2023/04/07 00:05:40;;;;;;;23.35;10.65;;;;;;;8.02;100.00;101359.97;5050070;28;20580;-73
2023/04/07 00:08:06;;;;;;;22.77;10.57;;;;;;;8.02;100.00;101365.28;5048747;28;20037;-73
2023/04/07 00:10:31;;;;;;;26.95;10.48;;;;;;;7.97;100.00;101359.63;5050134;28;20033;-73
2023/04/07 00:12:57;;;;;;;20.75;9.13;;;;;;;7.99;100.00;101362.09;5050054;28;20032;-73
2023/04/07 00:15:22;;;;;;;20.45;9.02;;;;;;;7.97;100.00;101356.16;5049924;28;20021;-73
2023/04/07 00:17:48;;;;;;;22.17;10.75;;;;;;;7.94;100.00;101362.63;5050101;28;20068;-73
2023/04/07 00:20:13;;;;;;;23.15;10.20;;;;;;;7.91;100.00;101368.25;5050047;28;20029;-73
2023/04/07 00:22:39;;;;;;;20.77;10.00;;;;;;;7.90;100.00;101369.25;5049823;28;20060;-74
2023/04/07 00:25:05;;;;;;;22.30;10.00;;;;;;;7.85;100.00;101371.59;5048581;28;20024;-74
2023/04/07 00:27:30;;;;;;;22.60;10.60;;;;;;;7.89;100.00;101367.63;5049858;28;20071;-74
2023/04/07 00:29:56;;;;;;;20.00;8.95;;;;;;;7.86;100.00;101359.97;5049857;28;20083;-74
2023/04/07 00:32:21;;;;;;;23.15;10.88;;;;;;;7.89;100.00;101370.28;5049626;28;20044;-74
2023/04/07 00:34:47;;;;;;;25.48;10.57;;;;;;;7.79;100.00;101345.69;5049597;28;20025;-74
2023/04/07 00:37:12;;;;;;;24.45;11.75;;;;;;;7.87;100.00;101359.78;5049491;28;20427;-74
2023/04/07 00:39:37;;;;;;;22.92;11.95;;;;;;;7.83;100.00;101363.81;5048364;28;20059;-74
2023/04/07 00:42:06;;;;;;;23.10;10.98;;;;;;;7.85;100.00;101367.09;5048273;28;20469;-74
2023/04/07 00:44:32;;;;;;;22.60;10.52;;;;;;;7.85;100.00;101364.44;5049641;28;20055;-74
2023/04/07 00:46:58;;;;;;;20.05;10.95;;;;;;;7.85;100.00;101363.63;5048352;28;20446;-74
2023/04/07 00:49:24;;;;;;;23.52;10.55;;;;;;;7.86;100.00;101365.28;5049334;28;20037;-74
2023/04/07 00:51:50;;;;;;;19.02;8.60;;;;;;;7.85;100.00;101361.78;5048131;28;20029;-74
2023/04/07 00:54:16;;;;;;;25.90;10.30;;;;;;;7.84;100.00;101364.63;5049271;28;20472;-74
2023/04/07 00:56:42;;;;;;;24.45;10.52;;;;;;;7.81;100.00;101359.66;5049442;28;20032;-74
2023/04/07 00:59:07;;;;;;;21.98;9.77;;;;;;;7.78;100.00;101357.31;5048888;28;20029;-74
2023/04/07 01:01:36;;;;;;;20.23;9.18;;;;;;;7.79;100.00;101370.44;5047630;28;20061;-74
2023/04/07 01:04:08;;;;;;;16.55;7.78;;;;;;;7.77;100.00;101364.44;5049437;28;20075;-74
2023/04/07 01:06:38;;;;;;;17.63;7.07;;;;;;;7.74;100.00;101363.97;5049424;28;20029;-74
2023/04/07 01:09:33;;;;;;;17.13;7.15;;;;;;;7.73;100.00;101367.59;5049232;28;20024;-74
2023/04/07 01:12:09;;;;;;;16.98;6.43;;;;;;;7.69;100.00;101365.25;5048805;28;20558;-74
2023/04/07 01:14:41;;;;;;;12.85;5.15;;;;;;;7.67;100.00;101353.16;5049239;28;20124;-74
2023/04/07 01:17:09;;;;;;;14.45;6.28;;;;;;;7.66;100.00;101362.13;5049610;28;20079;-74
2023/04/07 01:19:42;;;;;;;17.73;6.40;;;;;;;7.62;100.00;101361.63;5049121;28;20076;-74
2023/04/07 01:22:22;;;;;;;13.02;5.35;;;;;;;7.59;100.00;101359.28;5049062;28;20094;-74
2023/04/07 01:24:57;;;;;;;13.00;4.80;;;;;;;7.60;100.00;101363.63;5049089;28;20040;-74
2023/04/07 01:27:42;;;;;;;11.38;5.15;;;;;;;7.56;100.00;101359.63;5049267;28;20032;-73
2023/04/07 01:30:12;;;;;;;14.48;5.43;;;;;;;7.57;100.00;101357.78;5049164;28;20028;-73
2023/04/07 01:32:40;;;;;;;11.05;6.03;;;;;;;7.49;100.00;101350.63;5049075;28;20435;-73
2023/04/07 01:35:09;;;;;;;15.68;5.40;;;;;;;7.51;100.00;101363.75;5047804;28;20025;-73
2023/04/07 01:37:36;;;;;;;11.88;4.88;;;;;;;7.49;100.00;101365.75;5048921;28;20159;-73
2023/04/07 01:40:03;;;;;;;14.18;4.28;;;;;;;7.47;100.00;101368.56;5049111;28;20036;-73
2023/04/07 01:42:30;;;;;;;12.95;4.35;;;;;;;7.44;100.00;101374.19;5049083;28;20051;-73
2023/04/07 01:44:58;;;;;;;9.07;4.22;;;;;;;7.45;100.00;101375.88;5049045;28;20025;-74
2023/04/07 01:47:26;;;;;;;12.68;4.95;;;;;;;7.44;100.00;101384.78;5048898;28;20033;-74
2023/04/07 01:49:53;;;;;;;12.85;4.97;;;;;;;7.40;100.00;101379.00;5048877;28;20495;-74
2023/04/07 01:52:20;;;;;;;11.18;4.38;;;;;;;7.41;100.00;101382.47;5048782;28;20021;-74
2023/04/07 01:54:45;;;;;;;11.63;3.72;;;;;;;7.42;100.00;101384.97;5047607;28;20094;-74
2023/04/07 01:57:11;;;;;;;14.18;4.60;;;;;;;7.39;100.00;101385.31;5048801;28;20036;-74
2023/04/07 01:59:36;;;;;;;12.90;4.75;;;;;;;7.39;100.00;101384.50;5047393;28;20045;-74
2023/04/07 02:02:02;;;;;;;12.45;6.03;;;;;;;7.39;100.00;101387.97;5048779;28;20044;-73
2023/04/07 02:04:36;;;;;;;9.07;3.83;;;;;;;7.39;100.00;101380.00;5052453;28;20032;-73
2023/04/07 02:07:08;;;;;;;11.82;4.38;;;;;;;7.36;100.00;101376.81;5052047;28;20427;-73
2023/04/07 02:09:39;;;;;;;12.02;4.15;;;;;;;7.39;100.00;101390.63;5051206;28;20025;-73
2023/04/07 02:12:06;;;;;;;11.27;3.93;;;;;;;7.40;100.00;101394.09;5052249;28;20063;-73
2023/04/07 02:14:32;;;;;;;9.80;4.00;;;;;;;7.39;100.00;101397.75;5052271;28;20504;-73
2023/04/07 02:17:00;;;;;;;11.55;4.95;;;;;;;7.38;100.00;101391.59;5051903;28;20075;-73
2023/04/07 02:19:26;;;;;;;11.85;4.07;;;;;;;7.38;100.00;101386.28;5052210;28;20032;-73
2023/04/07 02:21:52;;;;;;;10.55;3.78;;;;;;;7.38;100.00;101406.69;5052027;28;20056;-73
2023/04/07 02:24:20;;;;;;;10.07;3.13;;;;;;;7.37;100.00;101397.91;5052060;28;20029;-73
2023/04/07 02:26:46;;;;;;;9.45;4.55;;;;;;;7.37;100.00;101399.72;5052162;28;20477;-73
2023/04/07 02:29:12;;;;;;;9.75;4.55;;;;;;;7.35;100.00;101399.06;5050848;28;20048;-73
2023/04/07 02:31:37;;;;;;;8.52;3.33;;;;;;;7.36;100.00;101396.25;5051894;28;20028;-73
2023/04/07 02:34:03;;;;;;;8.50;3.60;;;;;;;7.38;100.00;101404.03;5051870;28;20086;-73
2023/04/07 02:36:28;;;;;;;9.00;3.58;;;;;;;7.37;100.00;101403.22;5051869;28;20633;-73
2023/04/07 02:38:54;;;;;;;8.68;3.13;;;;;;;7.36;100.00;101398.91;5051887;28;20029;-73
2023/04/07 02:41:20;;;;;;;10.85;4.03;;;;;;;7.36;100.00;101396.25;5051669;28;20029;-73
2023/04/07 02:43:45;;;;;;;12.45;3.70;;;;;;;7.33;100.00;101390.41;5050438;28;20029;-74
2023/04/07 02:46:11;;;;;;;10.32;4.50;;;;;;;7.31;100.00;101385.28;5051353;28;20051;-73
2023/04/07 02:48:36;;;;;;;15.75;4.22;;;;;;;7.34;100.00;101390.28;5051645;28;20033;-73
2023/04/07 02:51:01;;;;;;;10.13;3.67;;;;;;;7.32;100.00;101391.44;5051683;28;20384;-73
2023/04/07 02:53:27;;;;;;;14.20;5.07;;;;;;;7.31;100.00;101393.25;5051610;28;20040;-73
2023/04/07 02:55:52;;;;;;;10.73;4.07;;;;;;;7.32;100.00;101388.78;5051536;28;20029;-73
2023/04/07 02:58:17;;;;;;;13.75;3.92;;;;;;;7.32;100.00;101391.44;5050126;28;20033;-73
2023/04/07 03:00:43;;;;;;;15.98;4.40;;;;;;;7.32;100.00;101394.06;5051098;28;20135;-73
2023/04/07 03:03:08;;;;;;;10.52;4.05;;;;;;;7.28;100.00;101382.13;5051476;28;20127;-73
2023/04/07 03:05:34;;;;;;;12.25;4.82;;;;;;;7.31;100.00;101392.41;5050045;28;20040;-73
2023/04/07 03:07:59;;;;;;;11.05;4.53;;;;;;;7.31;100.00;101387.94;5051302;28;20036;-73
2023/04/07 03:10:25;;;;;;;14.35;5.40;;;;;;;7.32;100.00;101391.44;5051294;28;20377;-73
2023/04/07 03:12:50;;;;;;;14.48;4.65;;;;;;;7.27;100.00;101381.28;5050937;28;20025;-73
2023/04/07 03:15:16;;;;;;;12.10;4.03;;;;;;;7.31;100.00;101389.75;5051152;28;20391;-73
2023/04/07 03:17:41;;;;;;;12.02;4.25;;;;;;;7.29;100.00;101384.63;5051135;28;20044;-74
2023/04/07 03:20:07;;;;;;;13.85;4.90;;;;;;;7.28;100.00;101384.78;5051016;28;20040;-74
2023/04/07 03:22:33;;;;;;;11.43;4.65;;;;;;;7.29;100.00;101392.56;5051038;28;20083;-74
2023/04/07 03:24:58;;;;;;;11.88;4.57;;;;;;;7.30;100.00;101388.09;5033083;28;20057;-74
2023/04/07 03:27:23;;;;;;;14.75;4.40;;;;;;;7.33;100.00;101393.91;5051015;28;20500;-74
2023/04/07 03:29:50;;;;;;;12.23;4.80;;;;;;;7.33;100.00;101398.38;5050780;28;20484;-74
2023/04/07 03:32:15;;;;;;;11.65;4.20;;;;;;;7.31;100.00;101395.06;5050757;28;20044;-74
2023/04/07 03:34:41;;;;;;;8.82;4.57;;;;;;;7.32;100.00;101400.22;5050706;28;20033;-74
2023/04/07 03:37:06;;;;;;;12.57;4.60;;;;;;;7.32;100.00;101386.94;5050949;28;20024;-74
2023/04/07 03:39:31;;;;;;;9.95;3.75;;;;;;;7.34;100.00;101395.56;5049249;28;20029;-74
2023/04/07 03:41:57;;;;;;;10.20;4.57;;;;;;;7.34;100.00;101394.75;5050976;28;20064;-74
2023/04/07 03:44:22;;;;;;;16.65;6.38;;;;;;;7.33;100.00;101395.72;5050597;28;20106;-72
2023/04/07 03:46:49;;;;;;;13.63;4.63;;;;;;;7.32;100.00;101396.72;5050436;28;20044;-72
2023/04/07 03:49:15;;;;;;;12.38;4.35;;;;;;;7.32;100.00;101402.88;5049215;28;20040;-71
2023/04/07 03:51:40;;;;;;;13.95;4.50;;;;;;;7.31;100.00;101401.22;5049201;28;20033;-72
2023/04/07 03:54:06;;;;;;;15.85;5.40;;;;;;;7.32;100.00;101407.34;5032670;28;20032;-72
2023/04/07 03:56:31;;;;;;;14.32;4.80;;;;;;;7.30;100.00;101399.53;5050457;28;20023;-72
2023/04/07 03:58:56;;;;;;;12.85;5.15;;;;;;;7.32;100.00;101402.88;5050200;28;20044;-71
2023/04/07 04:01:22;;;;;;;15.95;6.40;;;;;;;7.31;100.00;101409.19;5050066;28;20049;-73
2023/04/07 04:03:48;;;;;;;11.15;4.20;;;;;;;7.33;100.00;101406.34;5050152;28;20630;-73
2023/04/07 04:06:14;;;;;;;9.93;4.15;;;;;;;7.31;100.00;101406.53;5050245;28;20044;-73
2023/04/07 04:08:39;;;;;;;15.48;4.63;;;;;;;7.28;100.00;101401.50;5050198;28;20033;-73
2023/04/07 04:11:05;;;;;;;14.93;4.75;;;;;;;7.31;100.00;101410.97;5050043;28;20040;-73
2023/04/07 04:13:31;;;;;;;12.25;4.50;;;;;;;7.27;100.00;101397.22;5048635;28;20033;-73
2023/04/07 04:15:56;;;;;;;12.52;4.03;;;;;;;7.30;100.00;101409.31;5048585;28;20253;-73
2023/04/07 04:18:21;;;;;;;12.77;5.10;;;;;;;7.28;100.00;101398.84;5050013;28;20029;-73
2023/04/07 04:20:47;;;;;;;16.48;5.40;;;;;;;7.31;100.00;101410.97;5048609;28;20498;-73
2023/04/07 04:23:13;;;;;;;11.48;5.25;;;;;;;7.30;100.00;101410.16;5049954;28;20025;-73
2023/04/07 04:25:39;;;;;;;14.02;5.00;;;;;;;7.29;100.00;101405.84;5049468;28;20025;-73
2023/04/07 04:28:05;;;;;;;11.02;4.65;;;;;;;7.25;100.00;101394.69;5049766;28;20055;-73
2023/04/07 04:30:30;;;;;;;14.57;5.47;;;;;;;7.30;100.00;101409.31;5049768;28;20110;-73
2023/04/07 04:32:56;;;;;;;11.98;4.75;;;;;;;7.24;100.00;101400.19;5049709;28;20056;-73
2023/04/07 04:35:21;;;;;;;9.98;4.20;;;;;;;7.25;100.00;101412.44;5049851;28;20638;-73
2023/04/07 04:37:47;;;;;;;14.07;4.85;;;;;;;7.25;100.00;101412.44;5049031;28;20084;-73
2023/04/07 04:40:13;;;;;;;11.48;5.18;;;;;;;7.18;100.00;101409.63;5048358;28;20538;-73
2023/04/07 04:42:38;;;;;;;12.27;5.30;;;;;;;7.19;100.00;101415.75;5048434;28;20051;-73
2023/04/07 04:45:04;;;;;;;15.65;5.00;;;;;;;7.17;100.00;101415.91;5049682;28;20476;-73
2023/04/07 04:47:30;;;;;;;13.20;3.92;;;;;;;7.12;100.00;101406.78;5049445;28;20033;-74
2023/04/07 04:49:55;;;;;;;15.07;3.85;;;;;;;7.14;100.00;101418.88;5049519;28;20025;-74
2023/04/07 04:52:21;;;;;;;10.98;4.95;;;;;;;7.16;100.00;101432.81;5048175;28;20033;-74
2023/04/07 04:54:46;;;;;;;14.70;5.07;;;;;;;7.16;100.00;101432.00;5049444;28;20493;-74
2023/04/07 04:57:12;;;;;;;11.38;4.40;;;;;;;7.16;100.00;101429.34;5049485;28;20051;-74
2023/04/07 04:59:38;;;;;;;13.43;4.43;;;;;;;7.14;100.00;101426.00;5049212;28;20062;-74
2023/04/07 05:02:04;;;;;;;17.17;5.10;;;;;;;7.09;100.00;101423.00;5049145;28;20492;-75
2023/04/07 05:04:29;;;;;;;13.63;4.50;;;;;;;7.08;100.00;101426.66;5049375;28;20021;-74
2023/04/07 05:06:55;;;;;;;16.10;5.10;;;;;;;7.12;100.00;101435.94;5048471;28;20029;-75
2023/04/07 05:09:20;;;;;;;19.67;5.65;;;;;;;7.12;100.00;101436.78;5049761;28;20673;-77
2023/04/07 05:11:46;;;;;;;15.00;4.72;;;;;;;7.13;100.00;101438.44;5049931;28;20447;-72
2023/04/07 05:14:11;;;;;;;20.30;6.00;;;;;;;7.13;100.00;101443.75;5042284;28;20033;-77
2023/04/07 05:16:36;;;;;;;20.00;5.70;;;;;;;7.16;100.00;101445.25;5016745;28;20064;-75
2023/04/07 05:19:02;;;;;;;16.33;5.40;;;;;;;7.17;100.00;101441.59;5035216;28;20500;-76
2023/04/07 05:21:27;;;;;;;16.88;5.57;;;;;;;7.20;100.00;101451.91;5035823;28;20070;-75
2023/04/07 05:23:53;;;;;;;20.75;4.90;;;;;;;7.20;100.00;101441.28;5034028;28;20101;-73
2023/04/07 05:26:18;;;;;;;13.48;4.88;;;;;;;7.18;100.00;101443.28;5034709;28;20480;-72
2023/04/07 05:28:43;;;;;;;14.20;4.82;;;;;;;7.22;100.00;101453.41;5033210;28;20033;-73
2023/04/07 05:31:10;;;;;;;17.73;5.40;;;;;;;7.22;100.00;101439.31;5030475;28;20048;-76
2023/04/07 05:33:36;;;;;;;13.38;5.13;;;;;;;7.28;100.00;101453.75;5030707;28;20125;-73
2023/04/07 05:36:01;;;;;;;17.00;5.15;;;;;;;7.26;100.00;101453.94;5032432;28;20469;-72
2023/04/07 05:38:26;;;;;;;14.68;5.57;;;;;;;7.30;100.00;101455.25;5037372;28;20064;-72
2023/04/07 05:40:52;;;;;;;19.08;5.68;;;;;;;7.29;100.00;101447.47;5038272;28;20056;-72
2023/04/07 05:43:17;;;;;;;31.25;6.72;;;;;;;7.32;100.00;101457.75;5038096;28;20030;-72
2023/04/07 05:45:42;;;;;;;15.90;4.90;;;;;;;7.24;100.00;101442.63;5037492;28;20035;-72
2023/04/07 05:48:08;;;;;;;18.20;5.85;;;;;;;7.31;100.00;101456.94;5038217;28;20480;-72
2023/04/07 05:50:33;;;;;;;23.80;6.80;;;;;;;7.37;100.00;101471.38;5038377;28;20052;-74
2023/04/07 05:52:58;;;;;;;16.92;5.07;;;;;;;7.36;100.00;101470.56;5031456;28;20031;-73
2023/04/07 05:55:24;;;;;;;17.88;7.15;;;;;;;7.36;100.00;101467.91;5032648;28;20025;-74
2023/04/07 05:57:49;;;;;;;24.00;7.78;;;;;;;7.40;100.00;101469.22;5034183;28;20037;-74
2023/04/07 06:00:16;;;;;;;20.80;5.85;;;;;;;7.38;100.00;101465.06;5037174;28;20025;-74
2023/04/07 06:02:41;;;;;;;18.48;6.40;;;;;;;7.42;100.00;101467.25;5028999;28;20107;-72
2023/04/07 06:05:07;;;;;;;21.73;7.38;;;;;;;7.45;100.00;101479.38;5028206;28;20488;-73
2023/04/07 06:07:32;;;;;;;22.50;7.25;;;;;;;7.49;100.00;101483.34;5034868;28;20153;-76
2023/04/07 06:09:59;;;;;;;15.70;6.28;;;;;;;7.49;100.00;101483.34;5038466;28;20090;-74
2023/04/07 06:12:24;;;;;;;16.80;5.32;;;;;;;7.47;100.00;101480.03;5038469;28;20021;-74
2023/04/07 06:14:54;;;;;;;18.73;6.53;;;;;;;7.52;100.00;101487.50;5035642;28;20099;-73
2023/04/07 06:17:20;;;;;;;21.48;7.22;;;;;;;7.51;100.00;101489.31;5037301;28;20083;-72
2023/04/07 06:19:45;;;;;;;30.13;8.38;;;;;;;7.51;100.00;101497.28;5037141;28;21684;-72
2023/04/07 06:22:11;;;;;;;21.63;6.20;;;;;;;7.56;100.00;101499.47;5037145;28;20084;-72
2023/04/07 06:24:37;;;;;;;17.77;7.00;;;;;;;7.54;100.00;101496.13;5037555;28;20033;-72
2023/04/07 06:27:02;;;;;;;19.42;6.90;;;;;;;7.57;100.00;101501.13;5036610;28;20071;-72
2023/04/07 06:29:28;;;;;;;20.80;6.30;;;;;;;7.54;100.00;101504.09;5036759;28;20033;-73
2023/04/07 06:31:54;;;;;;;15.38;7.07;;;;;;;7.55;100.00;101503.13;5035839;28;20018;-71
2023/04/07 06:34:20;;;;;;;16.65;7.65;;;;;;;7.57;100.00;101509.09;5037287;28;20056;-73
2023/04/07 06:36:46;;;;;;;13.98;6.35;;;;;;;7.54;100.00;101502.28;5036774;28;20063;-74
2023/04/07 06:39:11;;;;;;;17.77;6.15;;;;;;;7.60;100.00;101509.63;5036754;28;20025;-72
2023/04/07 06:41:37;;;;;;;14.98;6.47;;;;;;;7.61;100.00;101508.59;5037296;28;20036;-72
2023/04/07 06:44:03;;;;;;;17.27;5.75;;;;;;;7.66;100.00;101511.63;5036321;28;20032;-73
2023/04/07 06:46:29;;;;;;;15.23;5.78;;;;;;;7.67;100.00;101513.25;5036922;28;20037;-73
2023/04/07 06:48:54;;;;;;;17.17;5.90;;;;;;;7.67;100.00;101523.88;5036888;28;20034;-74
2023/04/07 06:51:20;;;;;;;22.35;7.03;;;;;;;7.67;100.00;101525.72;5036982;28;20033;-73
2023/04/07 06:53:47;;;;;;;17.33;6.55;;;;;;;7.64;100.00;101520.72;5035592;28;20033;-73
2023/04/07 06:56:13;;;;;;;14.25;5.25;;;;;;;7.54;100.00;101507.59;5037046;28;20487;-73
2023/04/07 06:58:39;;;;;;;9.10;3.53;;;;;;;7.58;100.00;101510.75;5036470;28;20041;-73
2023/04/07 07:01:05;;;;;;;13.23;6.00;;;;;;;7.52;100.00;101511.38;5036646;28;20052;-73
2023/04/07 07:03:31;;;;;;;9.73;3.53;;;;;;;7.58;100.00;101529.34;5035810;28;20071;-73
2023/04/07 07:05:58;;;;;;;13.18;3.97;;;;;;;7.60;100.00;101528.19;5035886;28;20491;-73
2023/04/07 07:08:25;;;;;;;10.32;3.80;;;;;;;7.63;100.00;101541.16;5036264;28;21622;-73
2023/04/07 07:10:51;;;;;;;19.17;4.60;;;;;;;7.61;100.00;101531.69;5037590;28;20037;-73
2023/04/07 07:13:25;;;;;;;9.70;4.80;;;;;;;7.67;100.00;101542.47;5035737;28;20029;-73
2023/04/07 07:15:51;;;;;;;9.57;4.18;;;;;;;7.69;100.00;101550.28;5037015;28;20438;-77
2023/04/07 07:18:17;;;;;;;13.70;4.15;;;;;;;7.73;100.00;101540.16;5036544;28;20063;-74
2023/04/07 07:20:43;;;;;;;13.95;5.75;;;;;;;7.77;100.00;101539.69;5035894;28;21362;-73
2023/04/07 07:23:09;;;;;;;11.48;4.57;;;;;;;7.78;100.00;101536.06;5035212;28;20017;-72
2023/04/07 07:25:34;;;;;;;15.30;6.35;;;;;;;7.84;100.00;101540.72;5029931;28;20091;-73
2023/04/07 07:28:00;;;;;;;12.82;4.32;;;;;;;7.90;100.00;101542.72;5034205;28;20037;-72
2023/04/07 07:30:25;;;;;;;13.18;5.03;;;;;;;7.98;100.00;101547.22;5035337;28;20037;-73
2023/04/07 07:32:52;;;;;;;12.32;4.35;;;;;;;8.06;100.00;101544.56;5035327;28;20034;-73
2023/04/07 07:35:18;;;;;;;13.52;4.85;;;;;;;8.15;100.00;101558.72;5035017;28;20039;-73
2023/04/07 07:37:44;;;;;;;11.25;4.35;;;;;;;8.19;100.00;101557.38;5036666;28;20096;-73
2023/04/07 07:40:10;;;;;;;10.38;3.53;;;;;;;8.20;100.00;101560.88;5033799;28;20140;-73
2023/04/07 07:42:36;;;;;;;11.50;4.55;;;;;;;8.20;100.00;101556.41;5035835;28;20568;-73
2023/04/07 07:45:01;;;;;;;9.02;3.38;;;;;;;8.24;100.00;101562.22;5035941;28;20123;-72
2023/04/07 07:47:26;;;;;;;10.15;3.58;;;;;;;8.23;100.00;101564.06;5036238;28;21085;-72
2023/04/07 07:49:52;;;;;;;6.60;3.67;;;;;;;8.26;100.00;101562.91;5034662;28;20053;-78
2023/04/07 07:52:19;;;;;;;7.78;3.28;;;;;;;8.32;100.00;101565.72;5035200;28;20033;-77
2023/04/07 07:54:45;;;;;;;8.80;4.45;;;;;;;8.38;100.00;101566.88;5035763;28;20025;-79
2023/04/07 07:57:11;;;;;;;6.75;3.33;;;;;;;8.50;100.00;101567.44;5037041;28;20149;-80
2023/04/07 07:59:37;;;;;;;8.98;4.25;;;;;;;8.64;100.00;101571.25;5034358;28;20492;-78
2023/04/07 08:02:03;;;;;;;8.65;4.00;;;;;;;8.75;100.00;101576.22;5035448;28;20056;-73
2023/04/07 08:04:28;;;;;;;7.07;3.38;;;;;;;8.88;100.00;101586.38;5034161;28;20041;-75
2023/04/07 08:06:54;;;;;;;7.72;3.03;;;;;;;9.01;100.00;101578.72;5034992;28;20041;-74
2023/04/07 08:09:19;;;;;;;10.30;4.30;;;;;;;9.12;100.00;101590.84;5035301;28;20854;-77
2023/04/07 08:11:47;;;;;;;11.07;4.20;;;;;;;9.11;100.00;101597.16;5035030;28;20044;-76
2023/04/07 08:14:12;;;;;;;8.77;4.25;;;;;;;9.16;100.00;101597.50;5034523;28;20028;-76
2023/04/07 08:16:38;;;;;;;10.07;4.50;;;;;;;9.23;100.00;101603.81;5035442;28;20029;-76
2023/04/07 08:19:03;;;;;;;13.40;4.97;;;;;;;9.17;100.00;101597.34;5034857;28;20072;-76
2023/04/07 08:21:30;;;;;;;8.30;4.30;;;;;;;9.17;100.00;101599.16;5035838;28;20408;-76
2023/04/07 08:23:55;;;;;;;13.43;4.28;;;;;;;9.06;100.00;101589.69;5035838;28;20029;-80
2023/04/07 08:26:21;;;;;;;13.00;5.22;;;;;;;9.06;100.00;101602.97;5045572;28;20349;-77
2023/04/07 08:28:50;;;;;;;14.57;4.72;;;;;;;8.88;100.00;101594.34;5032002;28;20487;-77
2023/04/07 08:31:15;;;;;;;12.82;5.30;;;;;;;8.89;100.00;101607.50;5049791;28;20112;-76
2023/04/07 08:33:41;;;;;;;10.10;4.70;;;;;;;8.86;100.00;101601.69;5049658;28;20116;-76
2023/04/07 08:36:06;;;;;;;9.73;4.50;;;;;;;8.82;100.00;101598.50;5048183;28;20123;-76
2023/04/07 08:38:31;;;;;;;11.18;5.43;;;;;;;8.88;100.00;101608.50;5049351;28;20070;-76
2023/04/07 08:41:05;;;;;;;8.80;4.25;;;;;;;8.91;100.00;101613.50;5049732;28;20040;-76
2023/04/07 08:43:34;;;;;;;11.82;5.63;;;;;;;8.92;100.00;101606.34;5049446;28;20020;-76
2023/04/07 08:46:01;;;;;;;8.57;3.60;;;;;;;8.92;100.00;101604.50;5049468;28;20123;-74
2023/04/07 08:48:33;;;;;;;10.40;4.03;;;;;;;9.02;100.00;101619.47;5049817;28;20036;-75
2023/04/07 08:51:04;;;;;;;7.18;4.10;;;;;;;8.91;100.00;101602.84;5049247;28;20071;-75
2023/04/07 08:53:39;;;;;;;10.90;4.15;;;;;;;8.95;100.00;101612.13;5049451;28;20021;-75
2023/04/07 08:56:05;;;;;;;10.25;4.15;;;;;;;8.98;100.00;101622.44;5048082;28;20028;-75
2023/04/07 08:58:31;;;;;;;7.57;3.88;;;;;;;9.08;100.00;101624.94;5047685;28;20963;-76
2023/04/07 09:00:57;;;;;;;10.57;3.35;;;;;;;9.19;100.00;101624.59;5048210;28;20098;-75
2023/04/07 09:03:25;;;;;;;13.20;4.63;;;;;;;9.24;100.00;101621.41;5047975;28;20052;-76
2023/04/07 09:05:51;;;;;;;5.78;3.38;;;;;;;9.35;100.00;101633.53;5047500;28;20028;-76
2023/04/07 09:08:16;;;;;;;8.80;3.35;;;;;;;9.48;100.00;101633.03;5049292;28;20021;-76
2023/04/07 09:10:41;;;;;;;10.18;4.35;;;;;;;9.52;100.00;101632.53;5032143;28;20071;-76
2023/04/07 09:13:07;;;;;;;9.65;3.83;;;;;;;9.46;100.00;101635.03;5051774;28;20469;-76
2023/04/07 09:15:32;;;;;;;11.60;5.80;;;;;;;9.43;100.00;101641.50;5051704;28;20036;-76
2023/04/07 09:17:58;;;;;;;9.80;4.40;;;;;;;9.39;100.00;101640.22;5052972;28;20029;-76
2023/04/07 09:20:24;;;;;;;11.52;3.67;;;;;;;9.41;100.00;101649.69;5052862;28;20037;-76
2023/04/07 09:22:49;;;;;;;10.00;2.88;;;;;;;9.53;100.00;101644.81;5052988;28;20021;-76
2023/04/07 09:25:21;;;;;;;6.93;2.88;;;;;;;9.52;100.00;101648.50;5053019;28;20036;-76
2023/04/07 09:28:03;;;;;;;8.05;3.25;;;;;;;9.51;100.00;101643.34;5051411;28;20082;-76
2023/04/07 09:30:31;;;;;;;7.55;3.25;;;;;;;9.47;100.00;101647.34;5052751;28;20064;-76
2023/04/07 09:32:58;;;;;;;6.95;3.35;;;;;;;9.39;100.00;101646.34;5051475;28;20448;-76
2023/04/07 09:35:23;;;;;;;11.57;3.22;;;;;;;9.38;100.00;101642.03;5052667;28;20477;-76
2023/04/07 09:38:02;;;;;;;9.45;3.55;;;;;;;9.40;100.00;101644.53;5051227;28;20040;-76
2023/04/07 09:40:28;;;;;;;12.00;3.45;;;;;;;9.35;100.00;101644.19;5052746;28;20476;-76
2023/04/07 09:42:53;;;;;;;6.38;3.53;;;;;;;9.34;100.00;101645.22;5052564;28;20086;-76
2023/04/07 09:45:26;;;;;;;9.60;3.67;;;;;;;9.39;100.00;101640.22;5052440;28;20013;-76
2023/04/07 09:47:52;;;;;;;7.63;3.22;;;;;;;9.44;100.00;101640.53;5052623;28;20082;-76
2023/04/07 09:50:31;;;;;;;7.22;3.20;;;;;;;9.50;100.00;101644.34;5050993;28;20017;-76
2023/04/07 09:52:56;;;;;;;8.45;3.50;;;;;;;9.53;100.00;101647.50;5052160;28;20040;-76
2023/04/07 09:55:24;;;;;;;10.63;3.50;;;;;;;9.51;100.00;101652.19;5052337;28;20029;-76
2023/04/07 09:57:50;;;;;;;8.82;3.42;;;;;;;9.51;100.00;101656.66;5051102;28;20071;-76
2023/04/07 10:00:16;;;;;;;13.88;3.95;;;;;;;9.39;100.00;101654.34;5052142;28;20029;-76
2023/04/07 10:02:42;;;;;;;7.40;3.50;;;;;;;9.29;100.00;101648.38;5052047;28;20049;-76
2023/04/07 10:05:09;;;;;;;14.45;4.78;;;;;;;9.24;100.00;101660.53;5052296;28;20450;-76
2023/04/07 10:07:35;;;;;;;8.35;3.90;;;;;;;9.24;100.00;101653.38;5050795;28;20021;-76
2023/04/07 10:10:00;;;;;;;8.75;3.05;;;;;;;9.23;100.00;101648.22;5034446;28;20071;-76
2023/04/07 10:12:26;;;;;;;15.20;3.50;;;;;;;9.29;100.00;101667.00;5052185;28;20055;-76
2023/04/07 10:14:53;;;;;;;6.57;3.05;;;;;;;9.28;100.00;101662.69;5051993;28;20060;-76
2023/04/07 10:17:21;;;;;;;7.80;3.65;;;;;;;9.34;100.00;101662.00;5051942;28;20033;-76
2023/04/07 10:19:49;;;;;;;16.42;3.63;;;;;;;9.39;100.00;101664.16;5052077;28;20094;-76
2023/04/07 10:22:16;;;;;;;9.73;2.72;;;;;;;9.36;100.00;101665.34;5033281;28;20021;-76
2023/04/07 10:24:53;;;;;;;6.75;2.75;;;;;;;9.33;100.00;101665.69;5050703;28;20033;-76
2023/04/07 10:27:26;;;;;;;7.03;3.22;;;;;;;9.29;100.00;101661.69;5050622;28;20083;-76
2023/04/07 10:29:52;;;;;;;11.43;3.00;;;;;;;9.27;100.00;101674.31;5051879;28;20575;-76
2023/04/07 10:32:18;;;;;;;8.60;2.38;;;;;;;9.21;100.00;101675.81;5051920;28;20060;-76
2023/04/07 10:34:49;;;;;;;6.43;2.53;;;;;;;9.16;100.00;101677.31;5051860;28;20099;-76
2023/04/07 10:37:21;;;;;;;7.22;2.95;;;;;;;9.17;100.00;101682.50;5050688;28;20116;-76
2023/04/07 10:39:51;;;;;;;8.60;3.08;;;;;;;9.19;100.00;101684.97;5052122;28;20051;-76
2023/04/07 10:42:38;;;;;;;9.77;4.18;;;;;;;9.22;100.00;101684.63;5051603;28;20047;-76
2023/04/07 10:45:04;;;;;;;13.52;4.28;;;;;;;9.24;100.00;101682.63;5050516;28;20080;-76
2023/04/07 10:47:30;;;;;;;10.07;4.38;;;;;;;9.31;100.00;101688.97;5033671;28;20074;-75
2023/04/07 10:50:17;;;;;;;10.85;3.38;;;;;;;9.43;100.00;101687.63;5051629;28;20423;-76
2023/04/07 10:52:44;;;;;;;9.80;3.53;;;;;;;9.62;100.00;101683.75;5051464;28;20075;-75
2023/04/07 10:55:27;;;;;;;11.07;3.10;;;;;;;9.83;100.00;101687.72;5050016;28;20123;-75
2023/04/07 10:58:21;;;;;;;6.72;2.97;;;;;;;9.77;100.00;101699.88;5049840;28;20036;-75
2023/04/07 11:00:56;;;;;;;5.97;2.63;;;;;;;9.72;100.00;101688.06;5051025;28;20075;-75
2023/04/07 11:03:23;;;;;;;9.95;3.08;;;;;;;9.69;100.00;101691.06;5051056;28;20102;-75
2023/04/07 11:05:48;;;;;;;5.53;2.50;;;;;;;9.71;100.00;101684.56;5051249;28;20055;-76
2023/04/07 11:08:14;;;;;;;4.35;2.40;;;;;;;9.70;100.00;101692.75;5032915;28;20480;-75
2023/04/07 11:10:46;;;;;;;6.45;4.03;;;;;;;9.74;100.00;101694.06;5049555;28;20040;-75
2023/04/07 11:13:11;;;;;;;;;;;;;;;9.81;100.00;101695.88;5051363;28;20021;-76
2023/04/07 11:15:37;;;;;;;7.68;2.60;;;;;;;9.70;100.00;101693.56;5050856;28;19944;-75
2023/04/07 11:18:14;;;;;;;7.25;2.25;;;;;;;9.68;100.00;101711.56;5050878;28;20476;-75